createdAt,value
2018-02-14T00:02:01.710Z,6.90
2018-02-14T00:04:29.045Z,6.73
2018-02-14T00:06:56.430Z,7.23
2018-02-14T00:09:23.784Z,7.20
2018-02-14T00:11:51.178Z,7.20
2018-02-14T00:14:18.561Z,7.30
2018-02-14T00:16:45.904Z,7.40
2018-02-14T00:19:13.279Z,7.20
2018-02-14T00:21:40.670Z,7.20
2018-02-14T00:24:08.023Z,7.70
2018-02-14T00:26:35.418Z,7.10
2018-02-14T00:29:02.773Z,7.60
2018-02-14T00:31:30.108Z,7.40
2018-02-14T00:33:57.455Z,7.30
2018-02-14T00:36:24.869Z,7.53
2018-02-14T00:38:52.238Z,6.90
2018-02-14T00:41:19.623Z,7.47
2018-02-14T00:43:47.018Z,7.00
2018-02-14T00:46:14.417Z,7.40
2018-02-14T00:48:41.807Z,6.87
2018-02-14T00:51:09.142Z,7.07
2018-02-14T00:53:36.498Z,7.03
2018-02-14T00:56:03.833Z,6.90
2018-02-14T00:58:31.189Z,7.40
2018-02-14T01:00:58.531Z,7.70
2018-02-14T01:03:25.915Z,6.70
2018-02-14T01:05:53.294Z,7.30
2018-02-14T01:08:20.629Z,7.23
2018-02-14T01:10:47.978Z,7.37
2018-02-14T01:13:15.354Z,7.00
2018-02-14T01:15:42.740Z,7.67
2018-02-14T01:18:10.138Z,6.80
2018-02-14T01:20:37.537Z,7.27
2018-02-14T01:23:04.889Z,7.10
2018-02-14T01:25:32.336Z,6.80
2018-02-14T01:27:59.694Z,7.20
2018-02-14T01:30:27.062Z,7.07
2018-02-14T01:32:54.402Z,7.20
2018-02-14T01:35:21.741Z,7.40
2018-02-14T01:37:49.110Z,7.00
2018-02-14T01:40:16.476Z,6.90
2018-02-14T01:42:43.941Z,7.57
2018-02-14T01:45:11.294Z,7.33
2018-02-14T01:47:38.710Z,6.67
2018-02-14T01:50:06.085Z,6.97
2018-02-14T01:52:33.430Z,7.33
2018-02-14T01:55:00.806Z,6.80
2018-02-14T01:57:28.994Z,7.47
2018-02-14T01:59:56.358Z,7.07
2018-02-14T02:02:23.694Z,6.90
2018-02-14T02:04:51.078Z,7.10
2018-02-14T02:07:18.427Z,6.67
2018-02-14T02:09:45.757Z,6.40
2018-02-14T02:12:13.114Z,6.63
2018-02-14T02:14:40.474Z,6.30
2018-02-14T02:17:07.863Z,6.40
2018-02-14T02:19:35.195Z,6.07
2018-02-14T02:22:02.533Z,6.07
2018-02-14T02:24:29.886Z,6.07
2018-02-14T02:26:57.228Z,6.00
2018-02-14T02:29:24.614Z,5.80
2018-02-14T02:31:51.970Z,6.03
2018-02-14T02:34:19.320Z,5.73
2018-02-14T02:36:46.666Z,5.37
2018-02-14T02:39:14.090Z,5.33
2018-02-14T02:41:41.435Z,5.13
2018-02-14T02:44:08.836Z,4.93
2018-02-14T02:46:36.232Z,5.20
2018-02-14T02:49:03.570Z,5.23
2018-02-14T02:51:30.980Z,5.47
2018-02-14T02:53:58.325Z,4.97
2018-02-14T02:56:25.701Z,5.00
2018-02-14T02:58:53.050Z,4.90
2018-02-14T03:01:20.413Z,4.93
2018-02-14T03:03:47.789Z,4.90
2018-02-14T03:06:15.126Z,4.80
2018-02-14T03:08:42.453Z,5.17
2018-02-14T03:11:09.826Z,5.17
2018-02-14T03:13:37.178Z,4.90
2018-02-14T03:16:04.522Z,5.00
2018-02-14T03:18:31.859Z,4.80
2018-02-14T03:20:59.194Z,5.00
2018-02-14T03:23:26.614Z,4.93
2018-02-14T03:25:53.943Z,5.00
2018-02-14T03:28:21.287Z,4.87
2018-02-14T03:30:48.621Z,4.43
2018-02-14T03:33:15.994Z,4.70
2018-02-14T03:35:43.341Z,4.50
2018-02-14T03:38:10.682Z,4.23
2018-02-14T03:40:38.017Z,4.63
2018-02-14T03:43:05.391Z,4.73
2018-02-14T03:45:32.781Z,4.73
2018-02-14T03:48:00.158Z,4.33
2018-02-14T03:50:27.538Z,4.90
2018-02-14T03:52:54.878Z,5.07
2018-02-14T03:55:22.472Z,4.97
2018-02-14T03:57:49.908Z,4.83
2018-02-14T04:00:17.383Z,4.70
2018-02-14T04:02:44.728Z,4.80
2018-02-14T04:05:12.098Z,4.70
2018-02-14T04:07:39.479Z,4.80
2018-02-14T04:10:06.886Z,4.87
2018-02-14T04:12:34.256Z,4.57
2018-02-14T04:15:01.602Z,4.70
2018-02-14T04:17:29.050Z,5.00
2018-02-14T04:19:56.442Z,4.60
2018-02-14T04:22:23.838Z,4.97
2018-02-14T04:24:51.183Z,4.70
2018-02-14T04:27:18.564Z,4.70
2018-02-14T04:29:45.945Z,5.10
2018-02-14T04:32:13.286Z,4.60
2018-02-14T04:34:40.685Z,4.40
2018-02-14T04:37:08.053Z,4.57
2018-02-14T04:39:35.481Z,4.70
2018-02-14T04:42:02.847Z,4.30
2018-02-14T04:44:30.213Z,4.73
2018-02-14T04:46:57.769Z,4.93
2018-02-14T04:49:25.110Z,5.00
2018-02-14T04:51:52.453Z,28.27
2018-02-14T04:54:19.846Z,11.80
2018-02-14T04:56:47.246Z,7.30
2018-02-14T04:59:14.578Z,6.23
2018-02-14T05:01:41.958Z,5.83
2018-02-14T05:04:09.353Z,5.93
2018-02-14T05:06:36.739Z,6.00
2018-02-14T05:09:04.118Z,6.97
2018-02-14T05:11:31.461Z,7.10
2018-02-14T05:13:58.848Z,6.50
2018-02-14T05:16:26.203Z,6.77
2018-02-14T05:18:53.578Z,6.97
2018-02-14T05:21:20.929Z,6.90
2018-02-14T05:23:48.262Z,6.80
2018-02-14T05:26:15.608Z,6.53
2018-02-14T05:28:42.955Z,6.40
2018-02-14T05:31:10.306Z,6.40
2018-02-14T05:33:37.650Z,6.30
2018-02-14T05:36:05.033Z,6.40
2018-02-14T05:38:32.468Z,5.70
2018-02-14T05:40:59.807Z,5.70
2018-02-14T05:43:27.146Z,5.60
2018-02-14T05:45:54.546Z,5.97
2018-02-14T05:48:21.890Z,5.80
2018-02-14T05:50:49.270Z,5.50
2018-02-14T05:53:16.689Z,5.53
2018-02-14T05:55:44.099Z,5.30
2018-02-14T05:58:11.450Z,5.67
2018-02-14T06:00:38.888Z,5.90
2018-02-14T06:03:06.264Z,6.07
2018-02-14T06:05:33.629Z,5.40
2018-02-14T06:08:01.030Z,6.20
2018-02-14T06:10:28.380Z,6.30
2018-02-14T06:12:55.733Z,5.53
2018-02-14T06:15:23.129Z,5.57
2018-02-14T06:17:50.542Z,5.57
2018-02-14T06:20:17.902Z,5.10
2018-02-14T06:22:45.240Z,5.03
2018-02-14T06:25:12.610Z,4.57
2018-02-14T06:27:39.986Z,4.50
2018-02-14T06:30:10.712Z,4.50
2018-02-14T06:32:38.134Z,4.33
2018-02-14T06:35:05.601Z,4.90
2018-02-14T06:37:33.053Z,4.70
2018-02-14T06:40:00.483Z,4.80
2018-02-14T06:42:27.925Z,5.00
2018-02-14T06:44:55.525Z,4.70
2018-02-14T06:47:23.055Z,4.90
2018-02-14T06:49:50.466Z,4.20
2018-02-14T06:52:18.076Z,4.50
2018-02-14T06:54:45.509Z,4.83
2018-02-14T06:57:12.947Z,4.80
2018-02-14T06:59:40.366Z,4.17
2018-02-14T07:02:07.830Z,4.43
2018-02-14T07:04:35.240Z,4.20
2018-02-14T07:07:02.800Z,4.47
2018-02-14T07:09:30.917Z,3.90
2018-02-14T07:12:00.524Z,3.70
2018-02-14T07:14:29.681Z,3.70
2018-02-14T07:16:59.703Z,3.60
2018-02-14T07:19:28.654Z,3.50
2018-02-14T07:21:57.434Z,3.20
2018-02-14T07:24:25.284Z,3.37
2018-02-14T07:26:52.886Z,3.60
2018-02-14T07:29:20.858Z,3.10
2018-02-14T07:31:49.604Z,3.50
2018-02-14T07:34:18.272Z,3.50
2018-02-14T07:36:47.243Z,3.17
2018-02-14T07:39:14.862Z,3.20
2018-02-14T07:41:43.448Z,3.40
2018-02-14T07:44:11.413Z,3.00
2018-02-14T07:46:41.295Z,3.37
2018-02-14T07:49:08.847Z,2.93
2018-02-14T07:51:36.415Z,2.80
2018-02-14T07:54:07.243Z,3.40
2018-02-14T07:56:34.872Z,2.70
2018-02-14T07:59:02.542Z,2.93
2018-02-14T08:01:30.163Z,3.10
2018-02-14T08:03:57.599Z,3.20
2018-02-14T08:06:25.023Z,2.90
2018-02-14T08:08:53.213Z,2.87
2018-02-14T08:11:20.583Z,2.83
2018-02-14T08:13:47.975Z,3.00
2018-02-14T08:16:15.407Z,2.90
2018-02-14T08:18:42.833Z,2.60
2018-02-14T08:21:10.323Z,2.70
2018-02-14T08:23:37.972Z,2.53
2018-02-14T08:26:05.423Z,2.80
2018-02-14T08:28:33.067Z,2.80
2018-02-14T08:31:00.525Z,2.70
2018-02-14T08:33:27.911Z,2.93
2018-02-14T08:35:55.354Z,2.50
2018-02-14T08:38:22.804Z,2.67
2018-02-14T08:40:50.311Z,2.70
2018-02-14T08:43:17.956Z,2.30
2018-02-14T08:45:45.412Z,2.40
2018-02-14T08:48:13.176Z,2.40
2018-02-14T08:50:41.440Z,2.87
2018-02-14T08:53:08.887Z,2.83
2018-02-14T08:55:36.406Z,3.03
2018-02-14T08:58:03.973Z,2.97
2018-02-14T09:00:31.684Z,3.10
2018-02-14T09:02:59.130Z,2.70
2018-02-14T09:05:26.536Z,2.70
2018-02-14T09:07:54.364Z,2.70
2018-02-14T09:10:21.761Z,2.83
2018-02-14T09:12:49.200Z,2.70
2018-02-14T09:15:16.624Z,2.80
2018-02-14T09:17:44.111Z,3.10
2018-02-14T09:20:11.570Z,2.80
2018-02-14T09:22:38.970Z,2.63
2018-02-14T09:25:06.452Z,2.50
2018-02-14T09:27:33.912Z,2.90
2018-02-14T09:30:02.873Z,3.07
2018-02-14T09:32:30.346Z,2.77
2018-02-14T09:34:57.743Z,2.77
2018-02-14T09:37:25.249Z,2.90
2018-02-14T09:39:52.696Z,2.97
2018-02-14T09:42:20.150Z,2.60
2018-02-14T09:44:47.681Z,2.63
2018-02-14T09:47:15.139Z,2.80
2018-02-14T09:49:42.567Z,2.57
2018-02-14T09:52:09.953Z,2.87
2018-02-14T09:54:37.462Z,2.57
2018-02-14T09:57:04.838Z,2.10
2018-02-14T09:59:32.301Z,2.57
2018-02-14T10:01:59.712Z,2.30
2018-02-14T10:04:27.066Z,2.37
2018-02-14T10:06:54.504Z,2.20
2018-02-14T10:09:21.922Z,2.63
2018-02-14T10:11:49.360Z,2.23
2018-02-14T10:14:16.798Z,2.60
2018-02-14T10:16:44.214Z,2.20
2018-02-14T10:19:11.656Z,2.20
2018-02-14T10:21:39.478Z,2.60
2018-02-14T10:24:07.040Z,2.40
2018-02-14T10:26:34.566Z,2.77
2018-02-14T10:29:01.979Z,2.50
2018-02-14T10:31:29.362Z,2.60
2018-02-14T10:33:56.943Z,2.43
2018-02-14T10:36:25.188Z,2.30
2018-02-14T10:38:53.136Z,2.30
2018-02-14T10:41:22.079Z,2.30
2018-02-14T10:43:49.630Z,2.40
2018-02-14T10:46:17.030Z,2.50
2018-02-14T10:48:44.507Z,2.63
2018-02-14T10:51:11.887Z,2.50
2018-02-14T10:53:39.365Z,2.60
2018-02-14T10:56:07.366Z,2.40
2018-02-14T10:58:34.883Z,2.10
2018-02-14T11:01:02.574Z,2.50
2018-02-14T11:03:30.038Z,2.30
2018-02-14T11:05:57.423Z,2.53
2018-02-14T11:08:29.060Z,2.80
2018-02-14T11:10:56.504Z,2.37
2018-02-14T11:13:24.356Z,2.63
2018-02-14T11:15:51.874Z,2.30
2018-02-14T11:18:19.319Z,2.60
2018-02-14T11:20:47.505Z,2.50
2018-02-14T11:23:16.269Z,2.57
2018-02-14T11:25:43.793Z,2.30
2018-02-14T11:28:11.159Z,2.40
2018-02-14T11:30:38.705Z,2.17
2018-02-14T11:33:06.144Z,2.17
2018-02-14T11:35:33.591Z,2.73
2018-02-14T11:38:01.171Z,2.37
2018-02-14T11:40:28.616Z,2.50
2018-02-14T11:42:55.990Z,2.60
2018-02-14T11:45:23.433Z,2.90
2018-02-14T11:47:50.881Z,2.77
2018-02-14T11:50:18.251Z,2.50
2018-02-14T11:52:45.805Z,2.40
2018-02-14T11:55:13.255Z,2.30
2018-02-14T11:57:40.700Z,2.40
2018-02-14T12:00:08.118Z,2.30
2018-02-14T12:02:35.538Z,2.33
2018-02-14T12:05:02.970Z,2.60
2018-02-14T12:07:30.475Z,2.77
2018-02-14T12:10:01.779Z,3.30
2018-02-14T12:12:29.364Z,2.57
2018-02-14T12:14:56.741Z,2.47
2018-02-14T12:17:24.184Z,2.57
2018-02-14T12:19:52.551Z,2.80
2018-02-14T12:22:19.990Z,2.63
2018-02-14T12:24:47.516Z,2.30
2018-02-14T12:27:15.017Z,2.60
2018-02-14T12:29:42.610Z,2.77
2018-02-14T12:32:10.060Z,2.37
2018-02-14T12:34:37.464Z,2.50
2018-02-14T12:37:04.928Z,2.40
2018-02-14T12:39:32.563Z,2.43
2018-02-14T12:42:00.108Z,2.43
2018-02-14T12:44:27.535Z,2.80
2018-02-14T12:46:55.192Z,2.70
2018-02-14T12:49:34.132Z,2.77
2018-02-14T12:52:02.773Z,2.37
2018-02-14T12:54:30.752Z,2.77
2018-02-14T12:56:58.175Z,2.80
2018-02-14T12:59:47.018Z,2.70
2018-02-14T13:02:29.985Z,2.80
2018-02-14T13:04:57.938Z,2.93
2018-02-14T13:07:26.022Z,3.07
2018-02-14T13:09:53.967Z,2.80
2018-02-14T13:12:25.630Z,3.00
2018-02-14T13:14:54.662Z,3.00
2018-02-14T13:17:24.049Z,3.60
2018-02-14T13:19:53.042Z,3.63
2018-02-14T13:22:24.141Z,3.50
2018-02-14T13:24:52.509Z,2.83
2018-02-14T13:27:21.504Z,3.77
2018-02-14T13:29:49.541Z,3.50
2018-02-14T13:34:52.021Z,3.47
2018-02-14T13:37:20.060Z,3.67
2018-02-14T13:39:48.230Z,3.70
2018-02-14T13:42:17.173Z,3.60
2018-02-14T13:44:45.404Z,3.57
2018-02-14T13:47:13.391Z,3.30
2018-02-14T13:49:43.606Z,3.43
2018-02-14T13:52:12.625Z,3.30
2018-02-14T13:54:44.292Z,3.47
2018-02-14T13:57:13.133Z,3.50
2018-02-14T13:59:44.091Z,3.70
2018-02-14T14:02:12.226Z,3.50
2018-02-14T14:04:41.720Z,3.60
2018-02-14T14:07:09.693Z,3.80
2018-02-14T14:09:38.111Z,3.60
2018-02-14T14:12:05.953Z,3.63
2018-02-14T14:14:35.813Z,3.57
2018-02-14T14:17:05.628Z,3.60
2018-02-14T14:19:33.146Z,3.53
2018-02-14T14:22:00.973Z,4.17
2018-02-14T14:24:31.274Z,3.47
2018-02-14T14:26:58.793Z,3.50
2018-02-14T14:29:26.624Z,3.97
2018-02-14T14:31:54.272Z,3.50
2018-02-14T14:34:21.937Z,3.40
2018-02-14T14:36:49.573Z,3.37
2018-02-14T14:39:19.220Z,3.37
2018-02-14T14:41:47.539Z,3.80
2018-02-14T14:44:16.790Z,3.47
2018-02-14T14:46:44.299Z,3.57
2018-02-14T14:49:12.777Z,3.43
2018-02-14T14:51:40.387Z,4.10
2018-02-14T14:54:10.855Z,4.10
2018-02-14T14:56:38.411Z,4.43
2018-02-14T14:59:05.832Z,3.93
2018-02-14T15:01:33.322Z,4.00
2018-02-14T15:04:01.118Z,4.30
2018-02-14T15:06:28.557Z,4.30
2018-02-14T15:08:56.123Z,4.20
2018-02-14T15:11:23.583Z,3.83
2018-02-14T15:13:50.978Z,4.47
2018-02-14T15:16:18.518Z,4.17
2018-02-14T15:18:45.951Z,4.50
2018-02-14T15:21:13.329Z,4.20
2018-02-14T15:23:40.715Z,4.70
2018-02-14T15:26:08.290Z,4.57
2018-02-14T15:28:35.672Z,4.43
2018-02-14T15:31:03.279Z,4.27
2018-02-14T15:33:30.776Z,4.83
2018-02-14T15:35:58.225Z,4.80
2018-02-14T15:38:25.590Z,4.60
2018-02-14T15:40:53.109Z,4.70
2018-02-14T15:45:53.909Z,4.80
2018-02-14T15:48:21.263Z,4.77
2018-02-14T15:50:48.709Z,4.80
2018-02-14T15:53:16.437Z,4.50
2018-02-14T15:55:43.819Z,4.53
2018-02-14T15:58:11.360Z,5.13
2018-02-14T16:00:38.715Z,5.10
2018-02-14T16:03:06.081Z,5.23
2018-02-14T16:05:33.500Z,4.73
2018-02-14T16:08:00.862Z,5.03
2018-02-14T16:10:28.271Z,5.07
2018-02-14T16:12:55.637Z,5.17
2018-02-14T16:15:23.053Z,5.10
2018-02-14T16:17:50.568Z,5.20
2018-02-14T16:20:17.971Z,4.90
2018-02-14T16:22:45.367Z,5.07
2018-02-14T16:25:12.764Z,5.17
2018-02-14T16:27:40.175Z,4.67
2018-02-14T16:30:07.575Z,5.20
2018-02-14T16:32:34.945Z,5.93
2018-02-14T16:35:02.436Z,5.67
2018-02-14T16:37:29.846Z,5.20
2018-02-14T16:39:57.263Z,5.50
2018-02-14T16:42:24.636Z,5.30
2018-02-14T16:44:52.028Z,5.37
2018-02-14T16:47:19.384Z,5.60
2018-02-14T16:49:46.795Z,5.13
2018-02-14T16:52:14.179Z,5.10
2018-02-14T16:54:41.722Z,5.50
2018-02-14T16:57:09.146Z,5.40
2018-02-14T16:59:36.508Z,5.37
2018-02-14T17:02:03.851Z,5.53
2018-02-14T17:04:31.267Z,5.37
2018-02-14T17:06:58.633Z,5.33
2018-02-14T17:09:26.061Z,5.10
2018-02-14T17:11:53.414Z,5.13
2018-02-14T17:14:20.832Z,5.20
2018-02-14T17:16:48.195Z,5.10
2018-02-14T17:19:15.550Z,5.00
2018-02-14T17:21:42.944Z,5.10
2018-02-14T17:24:10.395Z,5.20
2018-02-14T17:26:37.753Z,4.83
2018-02-14T17:29:05.147Z,5.17
2018-02-14T17:31:32.534Z,5.50
2018-02-14T17:33:59.883Z,4.80
2018-02-14T17:36:27.330Z,5.20
2018-02-14T17:38:54.681Z,4.97
2018-02-14T17:41:22.034Z,5.17
2018-02-14T17:43:49.460Z,5.10
2018-02-14T17:46:16.823Z,5.30
2018-02-14T17:48:44.242Z,5.27
2018-02-14T17:51:11.615Z,4.90
2018-02-14T17:53:39.043Z,5.10
2018-02-14T17:56:06.466Z,5.00
2018-02-14T17:58:33.897Z,4.97
2018-02-14T18:01:01.253Z,5.03
2018-02-14T18:03:28.655Z,5.47
2018-02-14T18:05:56.052Z,4.83
2018-02-14T18:08:23.435Z,5.13
2018-02-14T18:10:50.824Z,5.00
2018-02-14T18:13:18.182Z,4.80
2018-02-14T18:15:45.638Z,5.00
2018-02-14T18:18:13.029Z,5.03
2018-02-14T18:20:40.468Z,5.60
2018-02-14T18:23:07.831Z,4.97
2018-02-14T18:25:35.266Z,5.37
2018-02-14T18:28:02.622Z,5.00
2018-02-14T18:30:30.028Z,5.20
2018-02-14T18:32:57.439Z,5.30
2018-02-14T18:35:27.670Z,5.23
2018-02-14T18:37:55.025Z,5.40
2018-02-14T18:40:22.494Z,5.20
2018-02-14T18:42:49.914Z,5.00
2018-02-14T18:45:17.287Z,4.77
2018-02-14T18:47:44.633Z,4.97
2018-02-14T18:50:11.988Z,4.93
2018-02-14T18:52:39.393Z,5.00
2018-02-14T18:55:06.767Z,5.03
2018-02-14T18:57:34.127Z,4.90
2018-02-14T19:00:01.514Z,4.70
2018-02-14T19:02:28.873Z,4.60
2018-02-14T19:04:56.274Z,5.00
2018-02-14T19:07:23.629Z,5.10
2018-02-14T19:09:50.990Z,4.80
2018-02-14T19:12:18.361Z,5.10
2018-02-14T19:14:45.823Z,5.00
2018-02-14T19:17:13.217Z,4.63
2018-02-14T19:19:40.592Z,4.87
2018-02-14T19:22:07.943Z,4.57
2018-02-14T19:24:35.303Z,4.90
2018-02-14T19:27:02.673Z,4.50
2018-02-14T19:29:30.054Z,4.80
2018-02-14T19:31:57.409Z,4.70
2018-02-14T19:34:24.814Z,5.50
2018-02-14T19:36:52.211Z,5.23
2018-02-14T19:39:19.560Z,4.73
2018-02-14T19:41:46.919Z,5.03
2018-02-14T19:44:14.280Z,4.60
2018-02-14T19:46:41.706Z,5.17
2018-02-14T19:49:09.187Z,4.57
2018-02-14T19:51:36.579Z,5.10
2018-02-14T19:54:03.987Z,4.90
2018-02-14T19:56:31.392Z,5.07
2018-02-14T19:58:58.805Z,5.30
2018-02-14T20:01:26.309Z,5.07
2018-02-14T20:03:53.678Z,5.10
2018-02-14T20:06:21.034Z,5.07
2018-02-14T20:08:48.394Z,5.23
2018-02-14T20:11:15.805Z,5.30
2018-02-14T20:13:43.167Z,5.10
2018-02-14T20:16:10.532Z,5.37
2018-02-14T20:18:37.949Z,4.87
2018-02-14T20:21:05.346Z,4.90
2018-02-14T20:23:32.710Z,5.07
2018-02-14T20:26:00.099Z,5.17
2018-02-14T20:28:27.481Z,4.90
2018-02-14T20:30:54.847Z,5.53
2018-02-14T20:33:22.292Z,5.03
2018-02-14T20:35:49.758Z,5.40
2018-02-14T20:38:17.125Z,5.20
2018-02-14T20:40:44.579Z,5.00
2018-02-14T20:43:12.092Z,5.10
2018-02-14T20:45:39.432Z,5.20
2018-02-14T20:48:06.808Z,5.10
2018-02-14T20:50:34.223Z,5.30
2018-02-14T20:53:01.575Z,5.20
2018-02-14T20:55:28.965Z,5.30
2018-02-14T20:57:56.314Z,5.07
2018-02-14T21:00:23.676Z,4.90
2018-02-14T21:02:51.056Z,5.37
2018-02-14T21:05:18.428Z,5.40
2018-02-14T21:07:45.835Z,5.17
2018-02-14T21:10:13.197Z,5.90
2018-02-14T21:12:40.562Z,5.70
2018-02-14T21:15:07.975Z,5.70
2018-02-14T21:17:35.520Z,5.47
2018-02-14T21:20:02.912Z,5.33
2018-02-14T21:22:30.326Z,5.60
2018-02-14T21:24:57.688Z,5.70
2018-02-14T21:27:25.040Z,5.47
2018-02-14T21:29:52.396Z,5.60
2018-02-14T21:32:19.852Z,5.50
2018-02-14T21:34:47.276Z,6.20
2018-02-14T21:37:14.692Z,6.10
2018-02-14T21:39:42.114Z,6.47
2018-02-14T21:42:09.472Z,5.90
2018-02-14T21:44:36.839Z,6.20
2018-02-14T21:47:04.193Z,6.20
2018-02-14T21:49:31.570Z,6.00
2018-02-14T21:51:58.961Z,6.23
2018-02-14T21:54:26.298Z,6.17
2018-02-14T21:56:53.660Z,6.50
2018-02-14T21:59:21.012Z,6.73
2018-02-14T22:01:48.362Z,6.87
2018-02-14T22:04:15.790Z,7.03
2018-02-14T22:06:43.185Z,6.80
2018-02-14T22:09:10.545Z,7.30
2018-02-14T22:11:37.991Z,7.30
2018-02-14T22:14:05.370Z,7.37
2018-02-14T22:16:32.727Z,7.37
2018-02-14T22:19:00.091Z,7.63
2018-02-14T22:21:27.507Z,7.60
2018-02-14T22:23:54.875Z,8.17
2018-02-14T22:26:22.288Z,7.10
2018-02-14T22:28:49.638Z,8.33
2018-02-14T22:31:17.067Z,8.50
2018-02-14T22:33:44.435Z,7.70
2018-02-14T22:36:11.848Z,7.70
2018-02-14T22:38:39.229Z,8.10
2018-02-14T22:41:06.578Z,7.63
2018-02-14T22:43:33.956Z,8.30
2018-02-14T22:46:01.352Z,8.27
2018-02-14T22:48:28.768Z,7.93
2018-02-14T22:50:56.133Z,8.87
2018-02-14T22:53:23.564Z,8.57
2018-02-14T22:55:50.928Z,7.87
2018-02-14T22:58:18.328Z,8.10
2018-02-14T23:00:45.673Z,8.57
2018-02-14T23:03:13.068Z,8.73
2018-02-14T23:05:40.433Z,8.10
2018-02-14T23:08:07.829Z,8.33
2018-02-14T23:10:35.186Z,8.37
2018-02-14T23:13:02.607Z,8.20
2018-02-14T23:15:29.970Z,8.17
2018-02-14T23:17:57.377Z,8.57
2018-02-14T23:20:24.880Z,8.30
2018-02-14T23:22:52.239Z,8.13
2018-02-14T23:25:19.594Z,7.63
2018-02-14T23:27:46.946Z,7.70
2018-02-14T23:30:14.425Z,7.47
2018-02-14T23:32:41.770Z,8.23
2018-02-14T23:35:09.149Z,7.50
2018-02-14T23:37:36.570Z,7.73
2018-02-14T23:40:03.970Z,7.73
2018-02-14T23:42:31.377Z,7.30
2018-02-14T23:44:58.783Z,7.50
2018-02-14T23:47:26.142Z,8.03
2018-02-14T23:49:53.531Z,7.90
2018-02-14T23:52:20.936Z,7.90
2018-02-14T23:54:48.328Z,7.13
2018-02-14T23:57:15.697Z,7.03
2018-02-14T23:59:43.047Z,6.87
